Time;durP1;ratioP1;P1;durP2;ratioP2;P2;SDS_P1;SDS_P2;PMS_P1;PMS_P2;Temp;Humidity;BMP_temperature;BMP_pressure;BME280_temperature;BME280_humidity;BME280_pressure;Samples;Min_cycle;Max_cycle;Signal;HPM_P1;HPM_P2
2021/08/08 00:01:48;;;;;;;0.88;0.60;;;17.80;85.40;;;;;;5007768;28;20038;-80
2021/08/08 00:04:14;;;;;;;6.88;0.50;;;17.80;86.20;;;;;;4989860;28;20549;-80
2021/08/08 00:06:40;;;;;;;0.82;0.50;;;17.70;86.40;;;;;;4993854;28;20033;-80
2021/08/08 00:09:05;;;;;;;0.52;0.50;;;17.60;87.20;;;;;;4992003;28;20104;-80
2021/08/08 00:11:31;;;;;;;3.17;0.70;;;17.70;87.50;;;;;;4997490;28;20562;-80
2021/08/08 00:13:57;;;;;;;2.30;0.70;;;17.60;87.60;;;;;;5009372;28;20100;-80
2021/08/08 00:16:25;;;;;;;2.50;0.73;;;17.60;88.50;;;;;;4993447;28;20021;-80
2021/08/08 00:18:50;;;;;;;0.70;0.70;;;17.40;88.90;;;;;;4988716;28;20037;-80
2021/08/08 00:21:16;;;;;;;2.25;0.73;;;17.40;88.50;;;;;;4994370;28;20022;-80
2021/08/08 00:23:41;;;;;;;1.17;0.65;;;17.30;89.40;;;;;;4986119;28;20061;-82
2021/08/08 00:26:07;;;;;;;2.20;0.90;;;17.30;90.00;;;;;;5007322;28;20061;-80
2021/08/08 00:28:32;;;;;;;2.85;0.95;;;17.20;90.00;;;;;;4991595;28;20109;-81
2021/08/08 00:30:58;;;;;;;2.88;0.65;;;17.30;90.20;;;;;;4990923;28;20447;-81
2021/08/08 00:33:24;;;;;;;2.50;0.57;;;17.10;89.70;;;;;;4991159;28;20036;-81
2021/08/08 00:35:50;;;;;;;0.30;0.30;;;17.00;90.90;;;;;;4996599;28;20116;-82
2021/08/08 00:38:15;;;;;;;4.03;1.08;;;17.10;90.70;;;;;;4998764;28;20104;-80
2021/08/08 00:40:43;;;;;;;4.53;1.92;;;17.00;91.00;;;;;;4993917;28;20049;-81
2021/08/08 00:43:10;;;;;;;3.65;0.80;;;17.10;91.40;;;;;;4995626;28;20025;-80
2021/08/08 00:45:35;;;;;;;0.60;0.40;;;17.10;91.50;;;;;;4999653;28;20099;-80
2021/08/08 00:48:01;;;;;;;2.90;0.80;;;17.10;91.50;;;;;;5010386;28;20040;-81
2021/08/08 00:50:28;;;;;;;1.23;0.55;;;17.10;91.40;;;;;;4990149;28;20128;-81
2021/08/08 00:52:53;;;;;;;3.75;0.60;;;17.10;91.70;;;;;;5006390;28;20418;-79
2021/08/08 00:55:19;;;;;;;1.95;0.85;;;17.00;92.30;;;;;;4992478;28;20749;-80
2021/08/08 00:57:44;;;;;;;8.27;0.80;;;17.00;91.90;;;;;;4992384;28;20112;-81
2021/08/08 01:00:12;;;;;;;1.27;0.80;;;17.00;92.00;;;;;;4991527;28;20053;-80
2021/08/08 01:02:41;;;;;;;0.70;0.40;;;17.00;91.90;;;;;;5000811;28;20038;-81
2021/08/08 01:05:14;;;;;;;1.25;0.80;;;17.00;92.00;;;;;;5010471;28;20037;-80
2021/08/08 01:07:44;;;;;;;2.85;1.30;;;17.00;92.10;;;;;;4992663;28;20040;-80
2021/08/08 01:10:10;;;;;;;2.08;1.02;;;17.00;92.10;;;;;;5017293;28;20030;-79
2021/08/08 01:12:37;;;;;;;0.82;0.68;;;17.10;92.00;;;;;;5002134;28;20084;-80
2021/08/08 01:15:03;;;;;;;2.47;1.08;;;17.10;92.00;;;;;;4992646;28;20073;-80
2021/08/08 01:17:30;;;;;;;2.03;0.73;;;17.10;92.20;;;;;;4991837;28;20041;-80
2021/08/08 01:20:06;;;;;;;1.25;0.85;;;17.00;92.30;;;;;;4995323;28;20037;-80
2021/08/08 01:22:32;;;;;;;;;;;17.00;92.30;;;;;;5002037;28;20036;-80
2021/08/08 01:24:58;;;;;;;1.43;0.70;;;17.00;92.30;;;;;;5014963;28;19913;-80
2021/08/08 01:27:24;;;;;;;5.10;1.20;;;17.00;92.50;;;;;;5009267;28;20051;-79
2021/08/08 01:29:52;;;;;;;3.55;1.05;;;17.10;92.40;;;;;;4988464;28;20506;-80
2021/08/08 01:32:17;;;;;;;3.90;0.98;;;17.10;92.30;;;;;;5008006;28;20048;-79
2021/08/08 01:34:43;;;;;;;2.50;1.23;;;17.00;92.40;;;;;;4993434;28;20045;-80
2021/08/08 01:37:08;;;;;;;2.67;1.33;;;17.00;92.20;;;;;;4992658;28;20084;-80
2021/08/08 01:39:34;;;;;;;1.92;1.60;;;17.00;92.60;;;;;;4990617;28;20033;-80
2021/08/08 01:42:03;;;;;;;4.75;1.50;;;17.10;92.40;;;;;;4994327;28;20449;-79
2021/08/08 01:44:32;;;;;;;6.53;1.50;;;17.00;92.30;;;;;;4993057;28;20029;-81
2021/08/08 01:46:58;;;;;;;0.88;0.50;;;17.00;92.10;;;;;;5023252;28;20034;-79
2021/08/08 01:49:26;;;;;;;2.80;1.52;;;17.00;92.30;;;;;;4999153;28;20099;-80
2021/08/08 01:51:52;;;;;;;4.13;1.58;;;17.00;92.20;;;;;;4998464;28;20489;-79
2021/08/08 01:54:18;;;;;;;2.88;1.55;;;17.00;92.70;;;;;;4999605;28;20037;-79
2021/08/08 01:56:45;;;;;;;2.22;1.27;;;17.10;92.30;;;;;;4999339;28;20052;-80
2021/08/08 01:59:11;;;;;;;2.10;1.48;;;17.00;92.20;;;;;;4999757;28;20056;-79
2021/08/08 02:01:36;;;;;;;2.47;1.52;;;17.10;92.10;;;;;;4992620;28;20049;-79
2021/08/08 02:04:02;;;;;;;2.28;1.52;;;17.10;92.30;;;;;;4994569;28;20038;-81
2021/08/08 02:06:27;;;;;;;1.83;1.23;;;17.00;92.20;;;;;;4995892;28;20025;-79
2021/08/08 02:08:53;;;;;;;2.83;1.50;;;17.10;92.00;;;;;;5011958;28;20037;-79
2021/08/08 02:11:18;;;;;;;4.38;1.40;;;17.10;92.20;;;;;;4995651;28;20063;-79
2021/08/08 02:13:44;;;;;;;5.35;1.60;;;17.10;92.00;;;;;;4994867;28;20053;-79
2021/08/08 02:16:09;;;;;;;3.72;1.40;;;17.10;92.00;;;;;;5011417;28;20128;-80
2021/08/08 02:18:35;;;;;;;3.25;1.20;;;17.00;92.10;;;;;;4995237;28;20022;-80
2021/08/08 02:21:00;;;;;;;5.97;1.58;;;17.10;92.00;;;;;;4999184;28;20042;-81
2021/08/08 02:23:26;;;;;;;2.63;1.33;;;17.10;91.90;;;;;;4994881;28;20109;-79
2021/08/08 02:25:51;;;;;;;4.80;1.67;;;17.10;91.90;;;;;;4995648;28;20056;-80
2021/08/08 02:28:17;;;;;;;7.78;1.67;;;17.00;91.90;;;;;;4995186;28;20053;-80
2021/08/08 02:30:43;;;;;;;5.15;1.50;;;17.00;91.90;;;;;;4995996;28;20069;-80
2021/08/08 02:33:08;;;;;;;3.47;1.50;;;17.00;91.90;;;;;;4996602;28;20059;-79
2021/08/08 02:35:34;;;;;;;3.35;1.48;;;17.00;92.10;;;;;;4995764;28;20026;-79
2021/08/08 02:38:06;;;;;;;7.00;2.25;;;17.00;92.00;;;;;;5013180;28;20029;-80
2021/08/08 02:40:31;;;;;;;3.28;1.10;;;17.00;92.00;;;;;;4996862;28;20033;-79
2021/08/08 02:42:57;;;;;;;4.10;1.08;;;17.00;92.00;;;;;;4995952;28;20053;-80
2021/08/08 02:45:22;;;;;;;1.83;1.25;;;17.00;92.00;;;;;;4995520;28;20116;-79
2021/08/08 02:47:48;;;;;;;5.68;1.42;;;17.00;91.90;;;;;;4992882;28;20402;-79
2021/08/08 02:50:13;;;;;;;3.80;1.35;;;17.00;91.80;;;;;;4997958;28;20072;-80
2021/08/08 02:52:41;;;;;;;7.63;2.00;;;17.00;91.90;;;;;;5000750;28;20825;-79
2021/08/08 02:55:09;;;;;;;3.60;1.38;;;17.00;91.70;;;;;;5000603;28;20125;-78
2021/08/08 02:57:35;;;;;;;7.30;1.77;;;16.90;91.80;;;;;;4992431;28;20489;-79
2021/08/08 03:00:00;;;;;;;3.75;1.08;;;16.80;92.00;;;;;;5007639;28;20057;-80
2021/08/08 03:02:26;;;;;;;4.32;1.48;;;16.90;91.90;;;;;;5009976;28;20120;-79
2021/08/08 03:04:51;;;;;;;5.68;1.50;;;16.90;91.70;;;;;;5011790;28;20025;-79
2021/08/08 03:07:17;;;;;;;2.70;1.05;;;17.00;91.70;;;;;;5009608;28;20057;-78
2021/08/08 03:09:42;;;;;;;3.38;1.60;;;16.90;91.60;;;;;;5002001;28;20091;-79
2021/08/08 03:12:08;;;;;;;8.80;1.77;;;16.90;91.60;;;;;;4996739;28;20542;-79
2021/08/08 03:14:33;;;;;;;2.53;0.68;;;16.90;91.70;;;;;;5007742;28;20168;-78
2021/08/08 03:16:59;;;;;;;6.68;1.73;;;16.90;91.60;;;;;;5012248;28;20036;-78
2021/08/08 03:19:24;;;;;;;2.08;0.90;;;16.90;91.50;;;;;;4997522;28;20113;-80
2021/08/08 03:21:50;;;;;;;8.15;1.95;;;16.80;91.40;;;;;;4997779;28;20474;-79
2021/08/08 03:24:15;;;;;;;1.77;0.93;;;16.90;91.40;;;;;;4995993;28;20479;-80
2021/08/08 03:26:41;;;;;;;5.40;1.80;;;16.90;91.30;;;;;;5002188;28;20034;-78
2021/08/08 03:29:08;;;;;;;5.65;1.98;;;16.90;91.30;;;;;;4994816;28;20067;-79
2021/08/08 03:31:34;;;;;;;5.85;1.80;;;16.90;91.30;;;;;;4998341;28;20236;-80
2021/08/08 03:34:00;;;;;;;7.72;2.22;;;16.90;91.30;;;;;;5000324;28;20563;-79
2021/08/08 03:36:25;;;;;;;3.72;1.25;;;16.90;91.20;;;;;;5009069;28;20053;-80
2021/08/08 03:38:51;;;;;;;5.30;1.73;;;16.90;91.20;;;;;;5000720;28;20028;-79
2021/08/08 03:41:17;;;;;;;3.85;1.23;;;16.80;91.10;;;;;;5000042;28;20030;-79
2021/08/08 03:43:43;;;;;;;2.97;1.42;;;16.80;91.10;;;;;;4995893;28;20032;-78
2021/08/08 03:46:08;;;;;;;5.03;1.23;;;16.80;91.00;;;;;;4992639;28;20022;-80
2021/08/08 03:48:34;;;;;;;5.68;1.90;;;16.80;91.00;;;;;;4991851;28;20030;-79
2021/08/08 03:50:59;;;;;;;6.75;1.83;;;16.80;91.00;;;;;;4990377;28;20461;-79
2021/08/08 03:53:25;;;;;;;7.82;1.20;;;16.80;90.90;;;;;;5027415;28;20393;-79
2021/08/08 03:55:50;;;;;;;6.88;3.30;;;16.80;90.80;;;;;;4994014;28;20063;-79
2021/08/08 03:58:16;;;;;;;4.93;1.95;;;16.80;90.90;;;;;;4994725;28;20040;-79
2021/08/08 04:00:41;;;;;;;10.60;1.80;;;16.80;90.80;;;;;;5003055;28;20892;-79
2021/08/08 04:03:07;;;;;;;4.85;1.80;;;16.80;90.80;;;;;;5005303;28;20533;-79
2021/08/08 04:05:33;;;;;;;5.60;1.13;;;16.80;90.80;;;;;;5015249;28;20485;-80
2021/08/08 04:08:00;;;;;;;4.68;0.80;;;16.80;90.80;;;;;;4991675;28;20121;-79
2021/08/08 04:10:25;;;;;;;5.22;1.27;;;16.80;90.80;;;;;;4994241;28;20033;-80
2021/08/08 04:12:51;;;;;;;5.90;1.40;;;16.80;90.80;;;;;;4995681;28;20025;-79
2021/08/08 04:15:16;;;;;;;8.73;2.25;;;16.70;90.80;;;;;;4993711;28;20041;-79
2021/08/08 04:17:42;;;;;;;6.45;1.33;;;16.70;90.70;;;;;;5005039;28;20540;-80
2021/08/08 04:20:08;;;;;;;7.85;1.75;;;16.70;90.80;;;;;;5012973;28;20026;-78
2021/08/08 04:22:33;;;;;;;6.60;1.60;;;16.70;90.70;;;;;;4993514;28;20037;-79
2021/08/08 04:24:59;;;;;;;6.10;1.40;;;16.80;90.80;;;;;;4991245;28;20056;-79
2021/08/08 04:27:24;;;;;;;7.72;2.17;;;16.70;90.70;;;;;;4991676;28;20049;-80
2021/08/08 04:29:50;;;;;;;4.68;1.98;;;16.70;90.80;;;;;;4993641;28;20397;-80
2021/08/08 04:32:15;;;;;;;5.43;1.63;;;16.70;90.70;;;;;;4991861;28;20375;-78
2021/08/08 04:34:41;;;;;;;9.48;1.23;;;16.70;90.70;;;;;;4992944;28;20096;-78
2021/08/08 04:37:06;;;;;;;4.90;1.63;;;16.70;90.80;;;;;;4996144;28;20043;-79
2021/08/08 04:39:32;;;;;;;7.18;1.80;;;16.70;90.80;;;;;;4992092;28;20144;-79
2021/08/08 04:41:58;;;;;;;5.25;2.03;;;16.70;90.60;;;;;;5008323;28;20072;-79
2021/08/08 04:44:23;;;;;;;9.38;1.88;;;16.80;90.60;;;;;;4994396;28;20029;-79
2021/08/08 04:46:49;;;;;;;7.57;1.42;;;16.70;90.70;;;;;;4992155;28;20076;-79
2021/08/08 04:49:14;;;;;;;7.80;1.70;;;16.60;90.80;;;;;;5007062;28;20113;-80
2021/08/08 04:51:40;;;;;;;5.43;2.05;;;16.60;90.80;;;;;;5007499;28;20030;-78
2021/08/08 04:54:08;;;;;;;6.57;1.77;;;16.60;90.80;;;;;;5007826;28;20481;-79
2021/08/08 04:56:34;;;;;;;7.65;2.00;;;16.70;90.80;;;;;;4992656;28;20026;-79
2021/08/08 04:59:00;;;;;;;3.47;1.55;;;16.60;90.70;;;;;;4990507;28;20543;-79
2021/08/08 05:01:25;;;;;;;5.05;1.92;;;16.70;90.80;;;;;;4999580;28;20025;-78
2021/08/08 05:03:51;;;;;;;5.13;1.50;;;16.70;90.80;;;;;;5007435;28;20079;-79
2021/08/08 05:06:16;;;;;;;6.75;2.05;;;16.70;90.70;;;;;;4994431;28;20470;-78
2021/08/08 05:08:42;;;;;;;6.47;1.92;;;16.70;90.80;;;;;;4991567;28;20033;-79
2021/08/08 05:11:07;;;;;;;9.68;1.85;;;16.70;90.70;;;;;;5008453;28;20037;-78
2021/08/08 05:13:33;;;;;;;5.93;1.50;;;16.70;90.70;;;;;;4992529;28;21807;-78
2021/08/08 05:15:59;;;;;;;4.30;1.48;;;16.60;90.80;;;;;;4997248;28;20386;-79
2021/08/08 05:18:24;;;;;;;6.13;2.10;;;16.70;90.80;;;;;;4988216;28;20494;-78
2021/08/08 05:20:50;;;;;;;6.22;1.98;;;16.70;90.80;;;;;;5001662;28;20476;-78
2021/08/08 05:23:16;;;;;;;9.80;2.28;;;16.70;90.80;;;;;;5015240;28;20036;-78
2021/08/08 05:25:41;;;;;;;5.30;2.10;;;16.70;90.80;;;;;;5005221;28;20503;-77
2021/08/08 05:28:07;;;;;;;7.03;1.70;;;16.70;90.80;;;;;;4996194;28;20061;-77
2021/08/08 05:30:40;;;;;;;8.23;1.92;;;16.80;90.80;;;;;;4999877;28;20167;-78
2021/08/08 05:33:06;;;;;;;3.53;1.10;;;16.80;90.70;;;;;;5020477;28;20029;-78
2021/08/08 05:35:31;;;;;;;0.98;0.70;;;16.90;90.80;;;;;;5001555;28;20378;-77
2021/08/08 05:37:57;;;;;;;6.65;2.08;;;16.80;90.80;;;;;;4994217;28;20053;-77
2021/08/08 05:40:22;;;;;;;11.85;3.25;;;16.80;90.80;;;;;;4997635;28;20054;-78
2021/08/08 05:42:49;;;;;;;5.88;1.65;;;16.80;90.80;;;;;;4997096;28;20025;-77
2021/08/08 05:45:14;;;;;;;7.28;2.40;;;16.80;90.80;;;;;;5000586;28;20029;-79
2021/08/08 05:47:40;;;;;;;1.77;1.13;;;16.90;90.70;;;;;;4999509;28;20041;-78
2021/08/08 05:50:06;;;;;;;6.50;1.70;;;16.90;90.60;;;;;;5002638;28;20044;-77
2021/08/08 05:52:31;;;;;;;6.40;2.40;;;16.90;90.80;;;;;;5015617;28;20037;-78
2021/08/08 05:55:00;;;;;;;11.77;2.30;;;16.90;90.70;;;;;;4995619;28;20029;-78
2021/08/08 05:57:25;;;;;;;7.45;2.30;;;17.00;90.70;;;;;;4995762;28;20107;-78
2021/08/08 05:59:51;;;;;;;4.70;1.92;;;17.00;90.60;;;;;;4999451;28;20444;-78
2021/08/08 06:02:16;;;;;;;5.93;1.83;;;17.10;90.50;;;;;;5010338;28;20537;-79
2021/08/08 06:04:42;;;;;;;7.50;2.42;;;17.10;90.50;;;;;;4996689;28;20032;-79
2021/08/08 06:07:16;;;;;;;3.13;1.20;;;17.10;90.50;;;;;;4995719;28;20391;-78
2021/08/08 06:09:41;;;;;;;11.48;1.85;;;17.10;90.40;;;;;;4998144;28;20025;-78
2021/08/08 06:12:10;;;;;;;12.80;2.13;;;17.10;90.40;;;;;;4997734;28;20034;-78
2021/08/08 06:14:35;;;;;;;7.72;2.05;;;17.10;90.40;;;;;;4999402;28;20033;-78
2021/08/08 06:17:07;;;;;;;15.73;3.25;;;17.00;90.90;;;;;;4992729;28;20025;-78
2021/08/08 06:19:32;;;;;;;7.90;1.65;;;17.10;90.50;;;;;;4995992;28;20021;-77
2021/08/08 06:21:58;;;;;;;6.82;1.40;;;17.10;90.40;;;;;;4993039;28;20029;-79
2021/08/08 06:24:23;;;;;;;7.10;1.70;;;17.00;90.40;;;;;;5010373;28;20048;-78
2021/08/08 06:26:49;;;;;;;8.25;2.80;;;17.20;90.30;;;;;;5003883;28;20401;-79
2021/08/08 06:29:14;;;;;;;8.00;2.10;;;17.30;90.30;;;;;;4998347;28;20029;-78
2021/08/08 06:31:40;;;;;;;9.45;1.80;;;17.30;90.30;;;;;;4998939;28;20026;-78
2021/08/08 06:34:05;;;;;;;6.80;1.85;;;17.40;90.10;;;;;;4997927;28;20036;-78
2021/08/08 06:36:31;;;;;;;5.88;1.88;;;17.40;90.10;;;;;;5000594;28;20090;-79
2021/08/08 06:38:58;;;;;;;13.80;2.63;;;17.40;90.00;;;;;;5008513;28;20117;-78
2021/08/08 06:41:24;;;;;;;1.58;1.13;;;17.30;90.00;;;;;;4999425;28;20052;-78
2021/08/08 06:43:50;;;;;;;2.83;1.00;;;17.40;90.00;;;;;;5007998;28;20036;-79
2021/08/08 06:46:15;;;;;;;8.07;1.90;;;17.40;89.90;;;;;;4997235;28;20034;-78
2021/08/08 06:48:41;;;;;;;3.45;1.08;;;17.30;90.00;;;;;;4999810;28;20033;-78
2021/08/08 06:51:06;;;;;;;5.70;1.70;;;17.30;89.70;;;;;;4997645;28;20045;-79
2021/08/08 06:53:32;;;;;;;5.47;1.83;;;17.30;89.80;;;;;;4997710;28;20053;-80
2021/08/08 06:56:00;;;;;;;5.68;2.13;;;17.40;89.80;;;;;;5010928;28;20029;-80
2021/08/08 06:58:26;;;;;;;5.05;1.25;;;17.30;90.00;;;;;;4994855;28;20029;-78
2021/08/08 07:00:51;;;;;;;11.15;2.38;;;17.40;90.00;;;;;;4999695;28;20304;-79
2021/08/08 07:03:17;;;;;;;6.28;2.92;;;17.30;89.60;;;;;;5002491;28;20030;-78
2021/08/08 07:05:42;;;;;;;7.90;2.47;;;17.30;89.60;;;;;;5010846;28;20457;-79
2021/08/08 07:08:09;;;;;;;10.90;1.73;;;17.40;89.60;;;;;;5004237;28;20030;-78
2021/08/08 07:10:34;;;;;;;8.65;1.63;;;17.40;89.30;;;;;;4995117;28;20370;-79
2021/08/08 07:13:00;;;;;;;7.00;2.10;;;17.40;89.40;;;;;;4994456;28;20045;-79
2021/08/08 07:15:25;;;;;;;6.53;1.65;;;17.50;89.60;;;;;;5004138;28;20032;-80
2021/08/08 07:17:51;;;;;;;6.22;1.75;;;17.50;89.00;;;;;;4995095;28;20044;-79
2021/08/08 07:20:17;;;;;;;14.35;2.50;;;17.50;89.10;;;;;;4994959;28;20080;-80
2021/08/08 07:22:42;;;;;;;7.05;2.10;;;17.60;89.00;;;;;;5000906;28;20021;-78
2021/08/08 07:25:08;;;;;;;9.40;2.60;;;17.60;89.10;;;;;;5010986;28;20485;-78
2021/08/08 07:27:34;;;;;;;5.20;1.58;;;17.80;88.70;;;;;;4999292;28;20112;-78
2021/08/08 07:29:59;;;;;;;10.70;2.20;;;17.80;88.00;;;;;;5010058;28;20482;-78
2021/08/08 07:32:26;;;;;;;5.10;1.60;;;17.80;88.40;;;;;;4993520;28;20025;-79
2021/08/08 07:34:51;;;;;;;9.60;2.15;;;17.80;88.00;;;;;;5000324;28;20033;-78
2021/08/08 07:37:17;;;;;;;11.27;2.55;;;18.00;87.80;;;;;;4998763;28;20359;-78
2021/08/08 07:39:42;;;;;;;6.75;1.90;;;18.10;87.50;;;;;;5000865;28;20514;-78
2021/08/08 07:42:08;;;;;;;5.15;1.75;;;18.00;87.90;;;;;;5009404;28;20068;-79
2021/08/08 07:44:34;;;;;;;2.58;1.33;;;18.10;87.00;;;;;;4997717;28;20022;-78
2021/08/08 07:46:59;;;;;;;6.53;2.05;;;18.10;86.70;;;;;;4993841;28;20037;-80
2021/08/08 07:49:25;;;;;;;4.07;1.60;;;18.10;87.10;;;;;;4991758;28;20037;-80
2021/08/08 07:51:50;;;;;;;5.03;1.50;;;18.20;86.60;;;;;;5001887;28;20022;-79
2021/08/08 07:54:20;;;;;;;4.90;1.50;;;18.60;86.20;;;;;;5009628;28;20096;-79
2021/08/08 07:56:46;;;;;;;5.70;1.88;;;18.70;86.30;;;;;;5000859;28;20068;-80
2021/08/08 07:59:12;;;;;;;8.90;2.25;;;19.00;85.40;;;;;;4993077;28;20045;-79
2021/08/08 08:01:38;;;;;;;9.77;2.00;;;19.40;85.80;;;;;;4994364;28;20537;-80
2021/08/08 08:04:05;;;;;;;7.35;1.88;;;19.40;85.10;;;;;;4999936;28;20053;-79
2021/08/08 08:06:31;;;;;;;4.82;1.30;;;19.60;84.20;;;;;;5007055;28;20500;-78
2021/08/08 08:08:56;;;;;;;13.55;2.92;;;19.30;83.40;;;;;;4992946;28;20033;-79
2021/08/08 08:11:22;;;;;;;9.10;2.15;;;19.50;83.20;;;;;;5008351;28;20033;-79
2021/08/08 08:13:47;;;;;;;3.53;1.17;;;19.40;83.50;;;;;;5001526;28;20026;-80
2021/08/08 08:16:13;;;;;;;7.07;2.17;;;19.60;82.90;;;;;;4992708;28;20049;-78
2021/08/08 08:18:40;;;;;;;1.83;1.42;;;20.00;83.10;;;;;;4993947;28;22746;-80
2021/08/08 08:21:05;;;;;;;5.47;1.70;;;19.80;81.10;;;;;;5013623;28;20512;-77
2021/08/08 08:23:31;;;;;;;7.00;1.65;;;19.50;81.80;;;;;;5000564;28;20022;-79
2021/08/08 08:25:56;;;;;;;8.93;2.13;;;20.00;81.50;;;;;;4998096;28;20032;-80
2021/08/08 08:28:22;;;;;;;7.43;2.05;;;20.00;80.60;;;;;;5009529;28;20103;-79
2021/08/08 08:30:47;;;;;;;6.70;2.38;;;20.00;80.30;;;;;;5009047;28;20091;-78
2021/08/08 08:33:13;;;;;;;7.63;1.58;;;20.20;79.60;;;;;;4994795;28;20116;-78
2021/08/08 08:35:38;;;;;;;7.85;1.73;;;20.40;79.20;;;;;;4991860;28;20025;-79
2021/08/08 08:38:04;;;;;;;4.68;1.38;;;20.60;79.30;;;;;;4996104;28;20456;-79
2021/08/08 08:40:30;;;;;;;7.93;1.98;;;20.50;78.60;;;;;;4993282;28;20029;-79
2021/08/08 08:42:57;;;;;;;13.75;2.80;;;20.70;77.70;;;;;;4992052;28;20090;-79
2021/08/08 08:45:22;;;;;;;3.67;1.55;;;20.90;76.90;;;;;;5009468;28;20048;-79
2021/08/08 08:47:48;;;;;;;22.52;2.47;;;20.90;77.10;;;;;;4999828;28;20037;-80
2021/08/08 08:50:13;;;;;;;4.93;1.75;;;21.00;76.80;;;;;;4999776;28;20154;-80
2021/08/08 08:52:39;;;;;;;8.88;2.42;;;20.90;76.40;;;;;;5003703;28;20147;-79
2021/08/08 08:55:05;;;;;;;7.25;1.45;;;20.80;76.20;;;;;;5010102;28;20039;-80
2021/08/08 08:57:31;;;;;;;4.78;0.95;;;20.60;76.80;;;;;;4994416;28;20068;-81
2021/08/08 08:59:58;;;;;;;7.13;1.75;;;20.50;77.40;;;;;;4999078;28;20057;-79
2021/08/08 09:02:23;;;;;;;7.60;1.92;;;20.50;77.20;;;;;;4993147;28;20030;-80
2021/08/08 09:04:49;;;;;;;5.72;1.38;;;20.50;76.40;;;;;;4993827;28;20056;-80
2021/08/08 09:07:15;;;;;;;5.40;1.40;;;20.70;75.50;;;;;;4992181;28;20120;-79
2021/08/08 09:09:47;;;;;;;8.85;1.52;;;21.00;75.90;;;;;;5001496;28;20109;-79
2021/08/08 09:12:22;;;;;;;4.38;1.60;;;21.30;75.40;;;;;;4995115;28;20033;-80
2021/08/08 09:14:55;;;;;;;6.00;1.75;;;21.30;75.00;;;;;;4972020;28;20037;-80
2021/08/08 09:17:22;;;;;;;5.68;2.50;;;21.00;75.10;;;;;;4991846;28;20034;-79
2021/08/08 09:19:57;;;;;;;3.00;1.38;;;21.10;74.80;;;;;;5009458;28;20037;-80
2021/08/08 09:22:23;;;;;;;10.32;1.92;;;21.10;74.40;;;;;;4997793;28;20037;-80
2021/08/08 09:24:48;;;;;;;4.32;1.88;;;21.50;73.00;;;;;;4993326;28;20482;-79
2021/08/08 09:27:14;;;;;;;7.15;1.80;;;21.50;73.60;;;;;;4997118;28;20042;-82
2021/08/08 09:29:41;;;;;;;6.63;1.42;;;21.70;73.90;;;;;;4997720;28;20378;-81
2021/08/08 09:32:07;;;;;;;7.13;1.80;;;21.70;72.50;;;;;;4991997;28;20080;-81
2021/08/08 09:34:37;;;;;;;4.30;1.65;;;21.70;72.40;;;;;;4988945;28;20080;-80
2021/08/08 09:37:09;;;;;;;8.65;2.10;;;21.40;73.10;;;;;;5005799;28;20093;-83
2021/08/08 09:39:41;;;;;;;5.47;1.50;;;21.50;73.10;;;;;;4990934;28;20116;-80
2021/08/08 09:42:08;;;;;;;7.18;1.83;;;21.80;73.90;;;;;;4992681;28;20104;-81
2021/08/08 09:44:35;;;;;;;4.35;1.33;;;22.30;72.30;;;;;;4992579;28;20021;-81
2021/08/08 09:47:00;;;;;;;8.32;2.60;;;22.30;71.20;;;;;;4992804;28;20037;-81
2021/08/08 09:49:26;;;;;;;5.32;1.60;;;22.40;71.80;;;;;;5006953;28;20398;-81
2021/08/08 09:51:52;;;;;;;5.65;1.55;;;22.50;74.10;;;;;;4992997;28;20426;-80
2021/08/08 09:54:19;;;;;;;8.95;1.95;;;22.70;70.80;;;;;;5011845;28;20037;-81
2021/08/08 09:56:44;;;;;;;3.33;1.52;;;22.80;71.40;;;;;;4992877;28;20055;-82
2021/08/08 09:59:10;;;;;;;5.93;1.80;;;22.50;70.20;;;;;;5003866;28;20030;-80
2021/08/08 10:01:39;;;;;;;5.00;1.55;;;22.30;70.40;;;;;;5001970;28;20037;-81
2021/08/08 10:04:07;;;;;;;4.43;1.38;;;22.50;70.50;;;;;;4996025;28;20068;-81
2021/08/08 10:06:33;;;;;;;4.45;1.85;;;22.10;69.90;;;;;;4997203;28;20394;-81
2021/08/08 10:09:00;;;;;;;6.90;2.38;;;22.20;71.20;;;;;;4998186;28;20037;-81
2021/08/08 10:11:25;;;;;;;6.53;1.88;;;23.00;69.80;;;;;;4995651;28;20556;-82
2021/08/08 10:13:57;;;;;;;9.25;1.80;;;22.90;69.50;;;;;;4998115;28;20112;-82
2021/08/08 10:16:23;;;;;;;3.78;1.67;;;22.50;68.70;;;;;;4997224;28;20029;-81
2021/08/08 10:18:54;;;;;;;6.80;1.90;;;22.20;69.80;;;;;;5015536;28;20029;-82
2021/08/08 10:21:19;;;;;;;6.88;1.95;;;22.30;70.50;;;;;;4995609;28;20038;-82
2021/08/08 10:23:47;;;;;;;5.68;1.80;;;22.20;70.20;;;;;;4996419;28;20078;-81
2021/08/08 10:26:13;;;;;;;4.72;2.10;;;22.00;69.00;;;;;;4994757;28;20032;-82
2021/08/08 10:28:49;;;;;;;3.70;1.50;;;22.10;69.70;;;;;;5000926;28;20037;-82
2021/08/08 10:31:17;;;;;;;;;;;21.80;69.80;;;;;;4994774;28;20037;-83
2021/08/08 10:33:50;;;;;;;7.47;1.67;;;22.50;68.70;;;;;;4994448;28;19912;-82
2021/08/08 10:36:23;;;;;;;7.28;2.45;;;22.30;69.30;;;;;;5017011;28;20026;-83
2021/08/08 10:38:51;;;;;;;5.10;1.52;;;22.50;68.90;;;;;;5011865;28;20494;-83
2021/08/08 10:41:16;;;;;;;10.38;2.15;;;22.40;69.60;;;;;;5001210;28;20033;-82
2021/08/08 10:43:45;;;;;;;4.75;1.60;;;22.90;68.30;;;;;;4995207;28;20026;-82
2021/08/08 10:46:11;;;;;;;7.90;1.55;;;22.90;67.60;;;;;;5011996;28;20037;-83
2021/08/08 10:48:41;;;;;;;5.97;2.00;;;22.70;67.70;;;;;;4995625;28;20128;-81
2021/08/08 10:51:24;;;;;;;6.63;3.03;;;22.80;67.90;;;;;;4998733;28;20041;-82
2021/08/08 10:54:22;;;;;;;4.80;1.90;;;23.10;67.10;;;;;;4995234;28;20033;-85
2021/08/08 10:56:48;;;;;;;3.28;1.48;;;23.10;65.60;;;;;;4945222;28;20033;-81
2021/08/08 10:59:18;;;;;;;4.20;1.65;;;22.90;65.70;;;;;;4998402;28;20116;-81
2021/08/08 11:01:43;;;;;;;3.92;1.30;;;22.80;66.10;;;;;;5000965;28;20362;-82
2021/08/08 11:04:29;;;;;;;8.90;1.40;;;23.00;66.30;;;;;;4997113;28;20040;-81
2021/08/08 11:06:58;;;;;;;6.20;1.80;;;23.60;64.60;;;;;;4997088;28;20120;-81
2021/08/08 11:09:24;;;;;;;8.63;1.30;;;23.50;64.50;;;;;;4979986;28;20341;-81
2021/08/08 11:11:54;;;;;;;9.40;1.85;;;23.20;65.00;;;;;;5013921;28;20036;-84
2021/08/08 11:14:20;;;;;;;6.03;1.83;;;22.80;66.60;;;;;;4999277;28;20033;-81
2021/08/08 11:17:03;;;;;;;4.47;1.60;;;23.00;65.30;;;;;;4997138;28;20540;-81
2021/08/08 11:19:36;;;;;;;7.15;1.50;;;23.00;65.10;;;;;;5003864;28;20026;-82
2021/08/08 11:22:13;;;;;;;9.95;2.65;;;22.90;64.30;;;;;;4991114;28;20038;-81
2021/08/08 11:24:39;;;;;;;5.75;1.80;;;22.50;65.90;;;;;;4996576;28;20512;-81
2021/08/08 11:27:05;;;;;;;9.32;1.80;;;22.60;66.20;;;;;;5010704;28;20744;-81
2021/08/08 11:29:31;;;;;;;6.25;1.60;;;22.80;65.70;;;;;;4992040;28;20022;-81
2021/08/08 11:32:01;;;;;;;4.20;1.13;;;23.20;66.10;;;;;;4991563;28;20113;-83
2021/08/08 11:34:26;;;;;;;7.30;1.27;;;23.80;63.40;;;;;;5009150;28;20033;-81
2021/08/08 11:36:56;;;;;;;3.75;1.50;;;24.30;63.10;;;;;;4993591;28;20021;-82
2021/08/08 11:39:21;;;;;;;6.38;1.65;;;24.50;63.10;;;;;;4997176;28;20105;-82
2021/08/08 11:41:47;;;;;;;4.70;1.33;;;24.30;62.90;;;;;;4996502;28;20108;-81
2021/08/08 11:44:13;;;;;;;3.88;1.33;;;24.50;63.80;;;;;;4995414;28;20637;-81
2021/08/08 11:46:43;;;;;;;5.13;1.45;;;24.20;62.30;;;;;;4992711;28;20033;-81
2021/08/08 11:49:19;;;;;;;4.68;0.73;;;24.20;63.70;;;;;;4994203;28;20040;-82
2021/08/08 11:52:03;;;;;;;2.22;1.00;;;23.40;62.90;;;;;;4994413;28;20129;-81
2021/08/08 11:54:32;;;;;;;3.40;1.20;;;22.90;64.50;;;;;;5008049;28;20025;-80
2021/08/08 11:56:57;;;;;;;4.50;1.20;;;22.80;64.60;;;;;;4994556;28;20029;-80
2021/08/08 11:59:27;;;;;;;5.43;1.60;;;22.70;64.40;;;;;;5027179;28;20021;-82
2021/08/08 12:02:02;;;;;;;4.18;1.10;;;22.90;64.00;;;;;;4997840;28;20032;-80
2021/08/08 12:04:29;;;;;;;6.30;1.52;;;22.70;63.60;;;;;;4975245;28;20087;-81
2021/08/08 12:06:54;;;;;;;4.90;1.20;;;22.90;64.60;;;;;;4997354;28;20569;-81
2021/08/08 12:09:23;;;;;;;5.25;1.55;;;23.30;63.80;;;;;;5008537;28;20124;-81
2021/08/08 12:11:58;;;;;;;3.88;1.23;;;23.90;65.20;;;;;;4995746;28;20129;-82
2021/08/08 12:14:40;;;;;;;5.03;1.40;;;23.70;63.20;;;;;;4976309;28;20485;-81
2021/08/08 12:17:13;;;;;;;2.92;1.08;;;24.10;64.40;;;;;;5017551;28;20045;-81
2021/08/08 12:19:40;;;;;;;1.40;0.82;;;24.10;63.30;;;;;;4996182;28;20484;-81
2021/08/08 12:22:06;;;;;;;3.03;1.10;;;24.00;63.00;;;;;;4993008;28;20061;-81
2021/08/08 12:24:33;;;;;;;3.75;1.25;;;24.00;63.50;;;;;;5009321;28;20048;-80
2021/08/08 12:26:59;;;;;;;1.67;0.82;;;24.50;64.00;;;;;;4995487;28;20557;-81
2021/08/08 12:29:32;;;;;;;6.63;1.00;;;24.50;61.50;;;;;;4994416;28;20159;-81
2021/08/08 12:32:09;;;;;;;1.77;0.77;;;25.00;62.90;;;;;;4988635;28;20029;-80
2021/08/08 12:34:34;;;;;;;2.65;0.90;;;25.00;60.60;;;;;;4987127;28;20053;-80
2021/08/08 12:37:04;;;;;;;1.58;0.90;;;25.20;60.90;;;;;;4993456;28;20067;-80
2021/08/08 12:39:29;;;;;;;5.75;1.60;;;25.50;59.70;;;;;;4990253;28;20026;-80
2021/08/08 12:41:55;;;;;;;5.88;1.20;;;24.40;60.60;;;;;;4991024;28;20049;-80
2021/08/08 12:44:30;;;;;;;4.75;1.33;;;25.10;61.80;;;;;;4998863;28;20805;-79
2021/08/08 12:46:59;;;;;;;3.20;1.27;;;25.30;60.60;;;;;;4992061;28;20030;-79